createdAt,value
2018-12-31T00:01:08.822Z,25.82
2018-12-31T00:03:39.114Z,21.90
2018-12-31T00:06:09.458Z,23.80
2018-12-31T00:08:39.884Z,22.42
2018-12-31T00:11:10.262Z,28.10
2018-12-31T00:13:40.611Z,24.05
2018-12-31T00:16:11.072Z,27.48
2018-12-31T00:18:41.418Z,23.22
2018-12-31T00:21:11.752Z,24.95
2018-12-31T00:23:42.130Z,22.70
2018-12-31T00:26:12.468Z,18.77
2018-12-31T00:28:42.795Z,13.10
2018-12-31T00:31:13.311Z,15.95
2018-12-31T00:33:43.637Z,11.28
2018-12-31T00:36:13.994Z,17.20
2018-12-31T00:38:44.381Z,13.13
2018-12-31T00:41:14.727Z,11.75
2018-12-31T00:43:45.008Z,12.37
2018-12-31T00:46:15.489Z,10.35
2018-12-31T00:48:46.307Z,12.13
2018-12-31T00:51:16.637Z,11.22
2018-12-31T00:53:47.030Z,12.45
2018-12-31T00:56:17.347Z,14.18
2018-12-31T00:58:47.627Z,12.23
2018-12-31T01:01:18.063Z,13.78
2018-12-31T01:03:48.358Z,10.93
2018-12-31T01:06:18.726Z,13.55
2018-12-31T01:08:49.190Z,17.98
2018-12-31T01:11:19.536Z,19.73
2018-12-31T01:13:49.880Z,18.42
2018-12-31T01:16:20.326Z,24.07
2018-12-31T01:18:50.662Z,17.82
2018-12-31T01:21:20.977Z,18.25
2018-12-31T01:23:51.379Z,26.33
2018-12-31T01:26:21.704Z,17.25
2018-12-31T01:28:52.048Z,14.25
2018-12-31T01:31:26.665Z,18.30
2018-12-31T01:33:57.076Z,19.48
2018-12-31T01:36:27.489Z,15.20
2018-12-31T01:38:57.829Z,11.28
2018-12-31T01:41:28.172Z,21.02
2018-12-31T01:43:58.600Z,19.35
2018-12-31T01:46:28.924Z,21.80
2018-12-31T01:49:14.953Z,25.08
2018-12-31T01:51:45.901Z,25.43
2018-12-31T01:54:16.316Z,24.82
2018-12-31T01:56:46.645Z,34.45
2018-12-31T01:59:16.985Z,31.48
2018-12-31T02:01:47.387Z,30.68
2018-12-31T02:04:17.856Z,26.10
2018-12-31T02:06:48.196Z,29.00
2018-12-31T02:09:18.681Z,35.33
2018-12-31T02:11:49.005Z,28.10
2018-12-31T02:14:19.340Z,24.37
2018-12-31T02:16:49.699Z,19.23
2018-12-31T02:19:20.271Z,27.70
2018-12-31T02:21:50.617Z,28.83
2018-12-31T02:24:21.042Z,22.82
2018-12-31T02:26:51.405Z,27.60
2018-12-31T02:29:21.772Z,25.72
2018-12-31T02:31:52.274Z,23.83
2018-12-31T02:34:22.648Z,21.17
2018-12-31T02:36:52.998Z,20.77
2018-12-31T02:39:23.520Z,20.68
2018-12-31T02:41:53.882Z,30.97
2018-12-31T02:44:24.208Z,21.65
2018-12-31T02:46:54.754Z,23.73
2018-12-31T02:49:25.021Z,19.37
2018-12-31T02:51:55.683Z,20.88
2018-12-31T02:54:25.962Z,21.25
2018-12-31T02:56:56.278Z,23.00
2018-12-31T02:59:26.779Z,27.00
2018-12-31T03:01:57.096Z,20.40
2018-12-31T03:04:27.400Z,16.93
2018-12-31T03:06:57.829Z,17.30
2018-12-31T03:09:28.197Z,23.05
2018-12-31T03:11:58.518Z,21.93
2018-12-31T03:14:29.043Z,17.43
2018-12-31T03:16:59.402Z,17.83
2018-12-31T03:19:29.759Z,22.13
2018-12-31T03:22:00.177Z,21.53
2018-12-31T03:24:30.577Z,12.87
2018-12-31T03:27:00.914Z,14.73
2018-12-31T03:29:31.387Z,15.60
2018-12-31T03:32:01.717Z,13.03
2018-12-31T03:34:32.004Z,13.25
2018-12-31T03:37:02.479Z,12.37
2018-12-31T03:39:32.834Z,12.00
2018-12-31T03:42:03.176Z,14.23
2018-12-31T03:44:33.640Z,11.57
2018-12-31T03:47:03.920Z,13.30
2018-12-31T03:49:34.326Z,13.13
2018-12-31T03:52:04.686Z,12.30
2018-12-31T03:54:35.220Z,12.10
2018-12-31T03:57:05.560Z,9.30
2018-12-31T03:59:36.045Z,12.83
2018-12-31T04:02:06.307Z,9.47
2018-12-31T04:04:36.669Z,10.87
2018-12-31T04:07:07.112Z,8.50
2018-12-31T04:09:37.437Z,10.83
2018-12-31T04:12:07.748Z,15.57
2018-12-31T04:14:38.262Z,15.77
2018-12-31T04:17:08.630Z,10.47
2018-12-31T04:19:38.955Z,13.03
2018-12-31T04:22:09.298Z,9.70
2018-12-31T04:24:39.629Z,9.60
2018-12-31T04:27:10.006Z,11.17
2018-12-31T04:29:40.474Z,11.43
2018-12-31T04:32:10.810Z,10.53
2018-12-31T04:34:41.094Z,11.73
2018-12-31T04:37:11.522Z,14.27
2018-12-31T04:39:41.843Z,9.40
2018-12-31T04:42:12.216Z,10.67
2018-12-31T04:44:42.683Z,9.87
2018-12-31T04:47:12.955Z,12.97
2018-12-31T04:49:43.263Z,12.97
2018-12-31T04:52:13.661Z,11.23
2018-12-31T04:54:44.000Z,16.53
2018-12-31T04:57:14.851Z,15.90
2018-12-31T04:59:45.300Z,12.73
2018-12-31T05:02:15.620Z,10.33
2018-12-31T05:04:45.975Z,14.37
2018-12-31T05:07:16.410Z,10.27
2018-12-31T05:09:46.734Z,12.80
2018-12-31T05:12:17.011Z,12.17
2018-12-31T05:14:47.888Z,16.47
2018-12-31T05:17:18.238Z,14.87
2018-12-31T05:19:48.587Z,14.07
2018-12-31T05:22:19.008Z,12.00
2018-12-31T05:24:49.357Z,14.90
2018-12-31T05:27:19.678Z,16.33
2018-12-31T05:29:50.121Z,12.30
2018-12-31T05:32:20.467Z,10.87
2018-12-31T05:34:50.802Z,13.67
2018-12-31T05:37:21.149Z,12.47
2018-12-31T05:39:51.450Z,14.83
2018-12-31T05:42:21.805Z,15.73
2018-12-31T05:44:52.320Z,19.13
2018-12-31T05:47:22.599Z,13.90
2018-12-31T05:49:52.969Z,15.87
2018-12-31T05:52:23.382Z,13.73
2018-12-31T05:54:53.717Z,19.63
2018-12-31T05:57:25.474Z,15.47
2018-12-31T05:59:56.323Z,12.37
2018-12-31T06:02:26.674Z,16.87
2018-12-31T06:04:57.088Z,14.43
2018-12-31T06:07:27.432Z,14.47
2018-12-31T06:09:57.800Z,15.70
2018-12-31T06:12:28.071Z,15.23
2018-12-31T06:14:58.539Z,16.83
2018-12-31T06:17:28.820Z,12.77
2018-12-31T06:19:59.121Z,11.77
2018-12-31T06:22:29.533Z,12.63
2018-12-31T06:24:59.881Z,16.97
2018-12-31T06:27:30.213Z,13.57
2018-12-31T06:30:02.172Z,12.97
2018-12-31T06:32:32.396Z,19.70
2018-12-31T06:35:02.758Z,15.13
2018-12-31T06:37:33.145Z,14.23
2018-12-31T06:40:03.502Z,12.57
2018-12-31T06:42:33.812Z,12.57
2018-12-31T06:45:04.259Z,17.90
2018-12-31T06:47:34.580Z,9.07
2018-12-31T06:50:05.517Z,15.73
2018-12-31T06:52:35.864Z,14.10
2018-12-31T06:55:06.339Z,12.13
2018-12-31T06:57:36.685Z,10.43
2018-12-31T07:00:07.693Z,10.57
2018-12-31T07:02:38.453Z,12.00
2018-12-31T07:05:08.813Z,11.23
2018-12-31T07:07:39.222Z,16.30
2018-12-31T07:10:09.751Z,12.00
2018-12-31T07:12:40.072Z,9.43
2018-12-31T07:15:10.612Z,13.30
2018-12-31T07:17:40.924Z,9.03
2018-12-31T07:20:11.295Z,11.23
2018-12-31T07:22:41.680Z,13.03
2018-12-31T07:25:11.976Z,14.70
2018-12-31T07:27:42.318Z,13.10
2018-12-31T07:30:12.776Z,18.53
2018-12-31T07:32:43.086Z,12.57
2018-12-31T07:35:13.418Z,11.20
2018-12-31T07:37:43.813Z,18.50
2018-12-31T07:40:14.091Z,14.93
2018-12-31T07:42:44.418Z,10.90
2018-12-31T07:45:14.918Z,15.83
2018-12-31T07:47:45.204Z,17.43
2018-12-31T07:50:15.490Z,13.07
2018-12-31T07:52:46.417Z,20.50
2018-12-31T07:55:16.769Z,13.47
2018-12-31T07:57:47.138Z,18.77
2018-12-31T08:00:17.472Z,18.27
2018-12-31T08:02:48.109Z,14.50
2018-12-31T08:05:18.533Z,13.60
2018-12-31T08:07:48.906Z,16.53
2018-12-31T08:10:19.208Z,13.73
2018-12-31T08:12:49.621Z,18.83
2018-12-31T08:15:19.989Z,15.47
2018-12-31T08:17:50.310Z,11.33
2018-12-31T08:20:20.804Z,15.67
2018-12-31T08:22:51.141Z,11.60
2018-12-31T08:25:21.466Z,15.10
2018-12-31T08:27:51.914Z,13.00
2018-12-31T08:30:22.183Z,12.83
2018-12-31T08:32:52.527Z,14.23
2018-12-31T08:35:23.032Z,26.27
2018-12-31T08:37:53.406Z,11.83
2018-12-31T08:40:23.758Z,15.03
2018-12-31T08:42:54.171Z,13.03
2018-12-31T08:45:24.512Z,14.10
2018-12-31T08:47:54.830Z,11.07
2018-12-31T08:50:25.337Z,12.73
2018-12-31T08:52:55.671Z,14.83
2018-12-31T08:55:26.012Z,16.87
2018-12-31T08:57:56.445Z,16.23
2018-12-31T09:00:26.716Z,11.00
2018-12-31T09:02:57.016Z,15.57
2018-12-31T09:05:27.883Z,13.53
2018-12-31T09:07:58.205Z,14.23
2018-12-31T09:10:28.557Z,11.90
2018-12-31T09:12:58.955Z,14.40
2018-12-31T09:15:29.284Z,14.73
2018-12-31T09:17:59.645Z,12.93
2018-12-31T09:20:30.042Z,10.70
2018-12-31T09:23:00.394Z,12.33
2018-12-31T09:25:30.662Z,12.17
2018-12-31T09:28:01.104Z,11.13
2018-12-31T09:30:31.417Z,12.03
2018-12-31T09:33:01.767Z,15.27
2018-12-31T09:35:32.208Z,15.40
2018-12-31T09:38:02.496Z,10.30
2018-12-31T09:40:32.839Z,11.53
2018-12-31T09:43:03.294Z,9.27
2018-12-31T09:45:33.589Z,10.00
2018-12-31T09:48:03.931Z,11.90
2018-12-31T09:50:34.369Z,14.20
2018-12-31T09:53:04.697Z,12.93
2018-12-31T09:55:35.054Z,12.80
2018-12-31T09:58:05.531Z,14.70
2018-12-31T10:00:35.804Z,12.93
2018-12-31T10:03:06.157Z,10.87
2018-12-31T10:05:36.852Z,7.93
2018-12-31T10:08:07.143Z,11.23
2018-12-31T10:10:37.480Z,15.50
2018-12-31T10:13:07.874Z,13.33
2018-12-31T10:15:38.219Z,14.83
2018-12-31T10:18:08.572Z,12.60
2018-12-31T10:20:39.076Z,14.10
2018-12-31T10:23:09.464Z,16.47
2018-12-31T10:25:39.837Z,15.20
2018-12-31T10:28:10.237Z,9.60
2018-12-31T10:30:40.568Z,13.80
2018-12-31T10:33:10.903Z,10.97
2018-12-31T10:35:41.371Z,11.93
2018-12-31T10:38:11.655Z,9.83
2018-12-31T10:40:42.014Z,18.30
2018-12-31T10:43:12.441Z,15.60
2018-12-31T10:45:42.711Z,17.60
2018-12-31T10:48:13.053Z,15.00
2018-12-31T10:50:43.510Z,14.90
2018-12-31T10:53:13.810Z,13.17
2018-12-31T10:55:44.152Z,13.80
2018-12-31T10:58:14.553Z,16.43
2018-12-31T11:00:44.923Z,15.33
2018-12-31T11:03:15.202Z,13.53
2018-12-31T11:05:45.898Z,12.70
2018-12-31T11:08:16.299Z,14.67
2018-12-31T11:10:46.694Z,16.23
2018-12-31T11:13:17.076Z,15.73
2018-12-31T11:15:47.381Z,18.70
2018-12-31T11:18:17.707Z,14.23
2018-12-31T11:20:50.870Z,19.50
2018-12-31T11:23:21.152Z,20.03
2018-12-31T11:25:51.710Z,21.73
2018-12-31T11:28:22.072Z,18.57
2018-12-31T11:30:52.544Z,18.63
2018-12-31T11:33:23.000Z,25.03
2018-12-31T11:35:53.455Z,22.67
2018-12-31T11:38:23.770Z,24.27
2018-12-31T11:40:54.333Z,21.70
2018-12-31T11:43:24.701Z,20.23
2018-12-31T11:45:55.104Z,18.30
2018-12-31T11:48:25.512Z,19.00
2018-12-31T11:50:55.921Z,20.00
2018-12-31T11:53:26.219Z,23.53
2018-12-31T11:55:56.708Z,23.77
2018-12-31T11:58:27.043Z,21.77
2018-12-31T12:00:57.403Z,28.47
2018-12-31T12:03:46.850Z,29.20
2018-12-31T12:06:17.383Z,35.60
2018-12-31T12:08:47.719Z,34.10
2018-12-31T12:11:18.197Z,27.13
2018-12-31T12:13:48.540Z,32.37
2018-12-31T12:16:18.883Z,33.53
2018-12-31T12:18:49.353Z,35.03
2018-12-31T12:21:19.675Z,37.90
2018-12-31T12:23:50.036Z,37.10
2018-12-31T12:26:20.498Z,32.50
2018-12-31T12:28:50.889Z,33.00
2018-12-31T12:31:21.223Z,36.43
2018-12-31T12:33:51.803Z,38.20
2018-12-31T12:36:22.140Z,34.23
2018-12-31T12:38:52.618Z,37.63
2018-12-31T12:41:23.133Z,34.33
2018-12-31T12:43:53.493Z,35.63
2018-12-31T12:46:23.823Z,32.90
2018-12-31T12:48:54.251Z,32.27
2018-12-31T12:51:24.581Z,35.07
2018-12-31T12:53:55.025Z,41.07
2018-12-31T12:56:25.728Z,41.93
2018-12-31T12:58:56.120Z,46.73
2018-12-31T13:01:26.481Z,46.00
2018-12-31T13:03:56.983Z,39.17
2018-12-31T13:06:27.271Z,36.27
2018-12-31T13:08:57.885Z,26.27
2018-12-31T13:11:28.362Z,26.73
2018-12-31T13:13:58.730Z,31.17
2018-12-31T13:16:29.074Z,23.00
2018-12-31T13:18:59.526Z,20.40
2018-12-31T13:21:30.044Z,17.70
2018-12-31T13:24:00.417Z,24.63
2018-12-31T13:26:30.873Z,23.50
2018-12-31T13:29:01.241Z,19.23
2018-12-31T13:31:32.951Z,18.17
2018-12-31T13:34:03.498Z,18.47
2018-12-31T13:36:33.858Z,18.80
2018-12-31T13:39:06.321Z,22.13
2018-12-31T13:41:36.670Z,20.23
2018-12-31T13:44:06.952Z,21.83
2018-12-31T13:46:37.617Z,28.67
2018-12-31T13:49:08.061Z,31.00
2018-12-31T13:51:38.617Z,34.23
2018-12-31T13:54:09.458Z,29.57
2018-12-31T13:56:39.845Z,24.97
2018-12-31T13:59:10.126Z,18.50
2018-12-31T14:01:40.588Z,15.67
2018-12-31T14:04:10.971Z,16.90
2018-12-31T14:06:41.381Z,18.60
2018-12-31T14:09:11.932Z,14.77
2018-12-31T14:11:42.291Z,20.40
2018-12-31T14:14:13.203Z,15.23
2018-12-31T14:16:43.494Z,18.10
2018-12-31T14:19:13.849Z,24.87
2018-12-31T14:21:44.311Z,16.03
2018-12-31T14:24:14.607Z,22.03
2018-12-31T14:26:45.929Z,16.57
2018-12-31T14:29:16.295Z,19.60
2018-12-31T14:31:47.076Z,14.73
2018-12-31T14:34:17.439Z,16.97
2018-12-31T14:36:48.445Z,15.87
2018-12-31T14:39:18.784Z,17.33
2018-12-31T14:41:49.118Z,16.60
2018-12-31T14:44:19.542Z,20.20
2018-12-31T14:46:49.873Z,19.27
2018-12-31T14:49:20.195Z,16.23
2018-12-31T14:51:50.743Z,10.63
2018-12-31T14:54:21.061Z,15.20
2018-12-31T14:56:51.394Z,16.93
2018-12-31T14:59:22.091Z,15.40
2018-12-31T15:01:52.466Z,15.20
2018-12-31T15:04:22.797Z,11.60
2018-12-31T15:06:53.353Z,11.80
2018-12-31T15:09:23.709Z,10.25
2018-12-31T15:11:54.200Z,14.05
2018-12-31T15:14:24.624Z,11.35
2018-12-31T15:16:54.990Z,12.88
2018-12-31T15:19:25.307Z,14.93
2018-12-31T15:21:56.373Z,14.03
2018-12-31T15:24:26.849Z,11.05
2018-12-31T15:26:57.170Z,7.42
2018-12-31T15:29:27.548Z,11.65
2018-12-31T15:31:57.917Z,14.13
2018-12-31T15:34:28.249Z,17.23
2018-12-31T15:36:58.757Z,11.68
2018-12-31T15:39:29.102Z,14.28
2018-12-31T15:41:59.614Z,13.83
2018-12-31T15:44:30.252Z,13.60
2018-12-31T15:47:00.894Z,11.28
2018-12-31T15:49:31.208Z,9.15
2018-12-31T15:52:01.621Z,9.35
2018-12-31T15:54:32.246Z,12.65
2018-12-31T15:57:02.643Z,14.78
2018-12-31T15:59:33.073Z,7.42
2018-12-31T16:02:03.380Z,11.08
2018-12-31T16:07:02.881Z,12.45
2018-12-31T16:09:33.790Z,6.05
2018-12-31T16:12:04.749Z,9.48
2018-12-31T16:14:35.145Z,6.92
2018-12-31T16:17:05.496Z,7.92
2018-12-31T16:19:36.185Z,5.67
2018-12-31T16:22:11.711Z,5.03
2018-12-31T16:24:43.451Z,5.08
2018-12-31T16:27:13.953Z,15.10
2018-12-31T16:29:44.585Z,11.48
2018-12-31T16:32:15.041Z,9.65
2018-12-31T16:34:45.455Z,7.83
2018-12-31T16:37:18.957Z,8.25
2018-12-31T16:39:51.247Z,5.53
2018-12-31T16:42:21.730Z,3.62
2018-12-31T16:44:52.080Z,5.22
2018-12-31T16:47:22.480Z,6.85
2018-12-31T16:49:52.950Z,4.03
2018-12-31T16:52:23.411Z,5.37
2018-12-31T16:54:53.893Z,5.33
2018-12-31T16:57:24.280Z,5.95
2018-12-31T16:59:54.658Z,11.73
2018-12-31T17:02:25.046Z,3.60
2018-12-31T17:04:55.386Z,5.97
2018-12-31T17:07:29.562Z,6.70
2018-12-31T17:10:00.235Z,4.72
2018-12-31T17:12:30.837Z,12.78
2018-12-31T17:15:01.403Z,4.25
2018-12-31T17:17:31.688Z,2.55
2018-12-31T17:20:02.130Z,4.45
2018-12-31T17:22:32.395Z,5.05
2018-12-31T17:25:02.892Z,8.53
2018-12-31T17:27:33.938Z,4.35
2018-12-31T17:30:10.536Z,7.87
2018-12-31T17:32:40.987Z,5.55
2018-12-31T17:35:11.333Z,3.50
2018-12-31T17:37:42.969Z,7.15
2018-12-31T17:40:13.495Z,4.95
2018-12-31T17:42:43.821Z,4.55
2018-12-31T17:45:14.192Z,6.10
2018-12-31T17:47:45.022Z,6.65
2018-12-31T17:50:15.400Z,5.20
2018-12-31T17:52:45.687Z,7.83
2018-12-31T17:55:16.101Z,4.92
2018-12-31T17:57:46.548Z,6.10
2018-12-31T18:00:17.155Z,6.55
2018-12-31T18:02:47.673Z,9.83
2018-12-31T18:05:17.988Z,5.47
2018-12-31T18:07:48.665Z,6.62
2018-12-31T18:10:18.926Z,11.20
2018-12-31T18:12:49.309Z,7.78
2018-12-31T18:15:19.770Z,7.33
2018-12-31T18:17:50.119Z,5.75
2018-12-31T18:20:20.506Z,6.87
2018-12-31T18:22:51.010Z,9.63
2018-12-31T18:25:21.333Z,8.60
2018-12-31T18:27:51.695Z,6.40
2018-12-31T18:30:22.769Z,7.33
2018-12-31T18:32:53.245Z,7.30
2018-12-31T18:35:23.600Z,4.70
2018-12-31T18:37:54.065Z,9.68
2018-12-31T18:40:24.601Z,5.45
2018-12-31T18:42:56.563Z,5.50
2018-12-31T18:45:27.501Z,5.60
2018-12-31T18:47:59.231Z,4.40
2018-12-31T18:50:29.519Z,8.73
2018-12-31T18:52:59.920Z,7.78
2018-12-31T18:55:30.337Z,8.10
2018-12-31T18:58:01.965Z,8.65
2018-12-31T19:00:32.294Z,9.45
2018-12-31T19:03:02.644Z,8.78
2018-12-31T19:05:32.974Z,6.97
2018-12-31T19:08:03.546Z,5.83
2018-12-31T19:10:34.325Z,10.30
2018-12-31T19:13:04.783Z,7.30
2018-12-31T19:15:35.142Z,6.85
2018-12-31T19:18:05.755Z,7.00
2018-12-31T19:20:36.144Z,4.83
2018-12-31T19:23:06.444Z,10.40
2018-12-31T19:25:36.903Z,10.48
2018-12-31T19:28:07.192Z,8.85
2018-12-31T19:30:37.536Z,5.45
2018-12-31T19:33:07.958Z,8.85
2018-12-31T19:35:38.299Z,4.22
2018-12-31T19:38:08.616Z,4.33
2018-12-31T19:40:39.107Z,6.95
2018-12-31T19:43:09.755Z,6.17
2018-12-31T19:45:40.098Z,6.78
2018-12-31T19:48:10.515Z,4.08
2018-12-31T19:50:40.842Z,7.00
2018-12-31T19:53:11.168Z,5.30
2018-12-31T19:55:43.018Z,9.55
2018-12-31T19:58:13.339Z,4.92
2018-12-31T20:00:47.945Z,7.85
2018-12-31T20:03:18.395Z,13.00
2018-12-31T20:05:49.037Z,4.78
2018-12-31T20:08:20.681Z,4.45
2018-12-31T20:10:51.295Z,7.90
2018-12-31T20:13:21.961Z,6.03
2018-12-31T20:15:52.280Z,10.03
2018-12-31T20:18:22.665Z,7.60
2018-12-31T20:20:53.038Z,3.75
2018-12-31T20:23:23.321Z,7.10
2018-12-31T20:25:53.866Z,9.40
2018-12-31T20:28:24.776Z,12.05
2018-12-31T20:30:55.126Z,6.03
2018-12-31T20:33:25.560Z,8.25
2018-12-31T20:35:55.916Z,11.38
2018-12-31T20:38:26.401Z,9.38
2018-12-31T20:40:57.290Z,11.45
2018-12-31T20:43:27.578Z,6.67
2018-12-31T20:45:58.667Z,6.30
2018-12-31T20:48:32.325Z,7.33
2018-12-31T20:51:03.025Z,8.70
2018-12-31T20:53:33.716Z,5.80
2018-12-31T20:56:04.393Z,8.20
2018-12-31T20:58:34.818Z,8.60
2018-12-31T21:01:05.336Z,4.42
2018-12-31T21:03:35.609Z,8.08
2018-12-31T21:06:05.973Z,7.12
2018-12-31T21:08:36.318Z,5.15
2018-12-31T21:11:06.700Z,5.00
2018-12-31T21:13:37.260Z,6.42
2018-12-31T21:16:07.724Z,5.87
2018-12-31T21:18:38.047Z,6.90
2018-12-31T21:21:08.410Z,5.30
2018-12-31T21:23:38.863Z,7.37
2018-12-31T21:26:09.186Z,5.62
2018-12-31T21:28:40.024Z,4.20
2018-12-31T21:31:11.995Z,4.62
2018-12-31T21:33:42.577Z,7.10
2018-12-31T21:36:12.997Z,6.37
2018-12-31T21:38:43.346Z,6.53
2018-12-31T21:41:13.697Z,5.05
2018-12-31T21:43:44.039Z,8.48
2018-12-31T21:46:14.534Z,8.45
2018-12-31T21:48:44.857Z,6.10
2018-12-31T21:51:15.180Z,12.63
2018-12-31T21:53:45.608Z,4.35
2018-12-31T21:56:15.939Z,10.40
2018-12-31T21:58:46.220Z,11.12
2018-12-31T22:01:16.702Z,10.28
2018-12-31T22:03:49.419Z,6.70
2018-12-31T22:06:19.742Z,5.62
2018-12-31T22:08:50.117Z,4.45
2018-12-31T22:11:20.997Z,9.90
2018-12-31T22:13:51.481Z,4.65
2018-12-31T22:16:21.947Z,6.92
2018-12-31T22:18:52.277Z,2.92
2018-12-31T22:21:22.665Z,10.32
2018-12-31T22:23:53.136Z,5.25
2018-12-31T22:26:23.410Z,3.35
2018-12-31T22:28:53.759Z,6.30
2018-12-31T22:31:24.249Z,5.10
2018-12-31T22:33:54.596Z,8.08
2018-12-31T22:36:24.938Z,6.42
2018-12-31T22:38:55.917Z,5.92
2018-12-31T22:41:26.280Z,7.92
2018-12-31T22:43:56.633Z,6.80
2018-12-31T22:46:27.156Z,9.28
2018-12-31T22:48:57.529Z,4.53
2018-12-31T22:51:27.864Z,5.75
2018-12-31T22:53:58.316Z,9.45
2018-12-31T22:56:28.949Z,4.33
2018-12-31T22:58:59.278Z,4.08
2018-12-31T23:01:30.291Z,4.25
2018-12-31T23:04:00.644Z,4.65
2018-12-31T23:06:30.961Z,4.28
2018-12-31T23:09:01.449Z,10.23
2018-12-31T23:11:31.821Z,5.75
2018-12-31T23:14:02.142Z,2.17
2018-12-31T23:16:32.637Z,14.47
2018-12-31T23:19:03.270Z,3.22
2018-12-31T23:21:33.670Z,6.33
2018-12-31T23:24:04.081Z,5.17
2018-12-31T23:26:34.465Z,6.67
2018-12-31T23:29:05.012Z,5.25
2018-12-31T23:31:35.472Z,4.90
2018-12-31T23:34:05.771Z,7.20
2018-12-31T23:36:36.606Z,5.08
2018-12-31T23:39:08.214Z,7.58
2018-12-31T23:41:38.546Z,7.90
2018-12-31T23:44:08.893Z,3.85
2018-12-31T23:46:39.580Z,6.42
2018-12-31T23:49:12.573Z,5.78
2018-12-31T23:51:43.084Z,5.22
2018-12-31T23:54:13.394Z,5.53
2018-12-31T23:56:43.734Z,9.85
2018-12-31T23:59:14.899Z,9.78
